createdAt,value
2022-09-07T00:02:48.617Z,11.5
2022-09-07T00:07:48.529Z,9.8
2022-09-07T00:17:48.528Z,10.1
2022-09-07T00:22:48.526Z,9.7
2022-09-07T00:32:48.548Z,8.6
2022-09-07T00:37:48.540Z,8.7
2022-09-07T00:42:48.534Z,8.2
2022-09-07T00:47:48.542Z,7.6
2022-09-07T00:52:48.536Z,7.0
2022-09-07T00:57:48.530Z,6.6
2022-09-07T01:02:48.755Z,5.2
2022-09-07T01:17:48.540Z,3.5
2022-09-07T01:22:48.551Z,3.4
2022-09-07T01:33:01.925Z,3.4
2022-09-07T01:37:48.541Z,3.2
2022-09-07T01:42:48.554Z,3.3
2022-09-07T01:47:48.554Z,3.0
2022-09-07T01:52:48.557Z,3.3
2022-09-07T01:57:48.553Z,3.1
2022-09-07T02:02:48.800Z,3.1
2022-09-07T02:07:48.556Z,2.7
2022-09-07T02:17:48.572Z,2.8
2022-09-07T02:22:48.559Z,3.0
2022-09-07T02:27:48.568Z,2.7
2022-09-07T02:32:48.571Z,3.0
2022-09-07T02:37:48.569Z,3.1
2022-09-07T02:42:48.579Z,3.0
2022-09-07T02:48:01.928Z,2.9
2022-09-07T02:52:48.579Z,2.8
2022-09-07T02:57:48.569Z,3.2
2022-09-07T03:02:48.630Z,2.9
2022-09-07T03:08:01.939Z,2.6
2022-09-07T03:12:48.583Z,2.7
2022-09-07T03:17:48.584Z,2.7
2022-09-07T03:22:48.591Z,2.7
2022-09-07T03:27:48.587Z,3.0
2022-09-07T03:32:48.587Z,2.9
2022-09-07T03:37:48.596Z,2.8
2022-09-07T03:42:48.599Z,3.0
2022-09-07T03:47:48.590Z,2.6
2022-09-07T03:52:48.595Z,2.8
2022-09-07T03:57:48.604Z,3.0
2022-09-07T04:02:48.659Z,3.3
2022-09-07T04:07:48.612Z,3.7
2022-09-07T04:12:48.602Z,3.6
2022-09-07T04:17:48.600Z,3.6
2022-09-07T04:22:52.494Z,3.9
2022-09-07T04:27:48.607Z,3.7
2022-09-07T04:32:48.607Z,3.8
2022-09-07T04:42:48.611Z,4.0
2022-09-07T04:47:48.615Z,4.3
2022-09-07T04:52:48.616Z,4.3
2022-09-07T04:57:48.620Z,5.0
2022-09-07T05:02:48.653Z,4.8
2022-09-07T05:07:48.623Z,5.2
2022-09-07T05:12:48.620Z,5.6
2022-09-07T05:17:48.626Z,5.7
2022-09-07T05:22:48.629Z,6.4
2022-09-07T05:27:48.631Z,5.9
2022-09-07T05:32:48.631Z,5.3
2022-09-07T05:37:48.633Z,6.7
2022-09-07T05:42:48.637Z,6.1
2022-09-07T05:47:48.632Z,6.8
2022-09-07T05:52:48.632Z,6.8
2022-09-07T06:02:48.739Z,7.3
2022-09-07T06:07:48.644Z,7.8
2022-09-07T06:12:49.408Z,8.4
2022-09-07T06:17:48.645Z,7.9
2022-09-07T06:22:48.651Z,7.8
2022-09-07T06:27:48.658Z,8.4
2022-09-07T06:32:48.655Z,8.2
2022-09-07T06:37:48.650Z,7.5
2022-09-07T06:42:48.660Z,7.7
2022-09-07T06:47:48.664Z,8.2
2022-09-07T06:57:48.666Z,8.8
2022-09-07T07:02:48.716Z,9.2
2022-09-07T07:07:48.677Z,9.8
2022-09-07T07:12:48.960Z,11.2
2022-09-07T07:17:53.640Z,11.9
2022-09-07T07:22:48.697Z,12.5
2022-09-07T07:27:48.682Z,12.4
2022-09-07T07:37:48.678Z,12.6
2022-09-07T07:42:48.679Z,11.9
2022-09-07T07:47:48.688Z,12.5
2022-09-07T07:52:50.379Z,12.6
2022-09-07T07:57:48.699Z,12.8
2022-09-07T08:02:48.744Z,13.1
2022-09-07T08:07:48.698Z,13.3
2022-09-07T08:12:48.708Z,13.8
2022-09-07T08:17:48.718Z,13.7
2022-09-07T08:22:48.701Z,14.1
2022-09-07T08:27:48.709Z,14.4
2022-09-07T08:32:48.711Z,15.1
2022-09-07T08:37:48.710Z,14.6
2022-09-07T08:42:48.716Z,15.5
2022-09-07T08:52:48.726Z,17.5
2022-09-07T08:57:48.719Z,17.2
2022-09-07T09:06:11.037Z,15.1
2022-09-07T09:07:48.725Z,13.6
2022-09-07T09:12:48.732Z,14.4
2022-09-07T09:22:48.732Z,13.5
2022-09-07T09:27:48.741Z,11.9
2022-09-07T09:32:48.743Z,11.6
2022-09-07T09:37:48.755Z,10.3
2022-09-07T09:42:48.747Z,10.2
2022-09-07T09:47:48.789Z,9.7
2022-09-07T09:52:51.812Z,10.1
2022-09-07T10:07:48.758Z,8.0
2022-09-07T10:12:48.761Z,7.2
2022-09-07T10:17:48.769Z,6.9
2022-09-07T10:22:51.485Z,6.1
2022-09-07T10:27:48.774Z,5.8
2022-09-07T10:32:48.769Z,4.9
2022-09-07T10:37:48.769Z,5.2
2022-09-07T10:47:48.786Z,6.2
2022-09-07T10:52:48.786Z,5.1
2022-09-07T10:57:49.280Z,5.9
2022-09-07T11:07:48.788Z,6.0
2022-09-07T11:12:48.794Z,5.4
2022-09-07T11:17:52.808Z,4.8
2022-09-07T11:22:48.800Z,4.7
2022-09-07T11:27:48.806Z,3.7
2022-09-07T11:32:48.808Z,3.6
2022-09-07T11:37:48.807Z,3.2
2022-09-07T11:42:48.840Z,2.3
2022-09-07T11:47:48.818Z,2.9
2022-09-07T11:52:53.489Z,2.6
2022-09-07T11:57:51.427Z,2.5
2022-09-07T12:02:59.394Z,2.2
2022-09-07T12:07:48.822Z,2.0
2022-09-07T12:12:48.826Z,1.9
2022-09-07T12:17:48.823Z,1.9
2022-09-07T12:22:48.828Z,1.7
2022-09-07T12:27:48.828Z,1.6
2022-09-07T12:32:56.470Z,1.8
2022-09-07T12:37:48.832Z,1.9
2022-09-07T12:42:48.846Z,1.3
2022-09-07T12:47:49.276Z,1.6
2022-09-07T12:52:48.840Z,1.4
2022-09-07T12:57:48.848Z,1.3
2022-09-07T13:02:49.016Z,1.3
2022-09-07T13:07:48.857Z,1.0
2022-09-07T13:12:57.380Z,0.9
2022-09-07T13:17:48.859Z,1.0
2022-09-07T13:22:48.855Z,1.2
2022-09-07T13:27:48.862Z,1.0
2022-09-07T13:37:48.892Z,0.9
2022-09-07T13:42:48.866Z,1.0
2022-09-07T13:47:48.867Z,0.9
2022-09-07T13:52:48.873Z,0.8
2022-09-07T13:57:48.876Z,0.7
2022-09-07T14:02:52.070Z,0.9
2022-09-07T14:07:48.877Z,0.9
2022-09-07T14:12:48.879Z,0.9
2022-09-07T14:17:48.891Z,0.9
2022-09-07T14:22:52.617Z,0.9
2022-09-07T14:27:48.883Z,0.8
2022-09-07T14:32:48.890Z,0.8
2022-09-07T14:37:48.893Z,1.1
2022-09-07T14:42:49.815Z,1.0
2022-09-07T14:47:48.891Z,0.8
2022-09-07T14:53:34.295Z,1.0
2022-09-07T14:57:49.148Z,1.1
2022-09-07T15:02:48.903Z,2.0
2022-09-07T15:07:48.903Z,0.9
2022-09-07T15:12:48.901Z,0.8
2022-09-07T15:17:48.992Z,1.3
2022-09-07T15:22:48.908Z,0.9
2022-09-07T15:27:48.910Z,1.5
2022-09-07T15:32:49.485Z,1.0
2022-09-07T15:47:52.214Z,1.3
2022-09-07T15:52:48.912Z,1.8
2022-09-07T15:58:05.113Z,0.7
2022-09-07T16:03:07.684Z,0.7
2022-09-07T16:17:53.612Z,0.9
2022-09-07T16:27:49.938Z,1.0
2022-09-07T16:32:48.977Z,0.8
2022-09-07T16:42:48.944Z,0.7
2022-09-07T16:47:48.937Z,0.8
2022-09-07T16:52:48.940Z,0.7
2022-09-07T17:02:48.943Z,1.8
2022-09-07T17:07:48.945Z,1.0
2022-09-07T17:12:48.951Z,1.0
2022-09-07T17:17:48.947Z,0.9
2022-09-07T17:22:48.945Z,0.9
2022-09-07T17:27:48.948Z,0.8
2022-09-07T17:32:48.998Z,0.9
2022-09-07T17:37:48.948Z,1.0
2022-09-07T17:47:48.955Z,1.3
2022-09-07T17:52:53.012Z,0.7
2022-09-07T17:57:48.956Z,1.1
2022-09-07T18:02:48.955Z,1.4
2022-09-07T18:07:48.961Z,1.1
2022-09-07T18:12:48.950Z,1.1
2022-09-07T18:17:48.980Z,1.5
2022-09-07T18:22:48.973Z,1.2
2022-09-07T18:29:03.018Z,1.3
2022-09-07T18:32:48.999Z,1.2
2022-09-07T18:37:50.079Z,1.0
2022-09-07T18:42:48.992Z,1.6
2022-09-07T18:47:48.962Z,1.3
2022-09-07T18:52:52.739Z,1.5
2022-09-07T18:57:48.981Z,1.4
2022-09-07T19:02:48.976Z,1.5
2022-09-07T19:07:48.969Z,1.7
2022-09-07T19:12:48.976Z,1.7
2022-09-07T19:17:48.965Z,1.2
2022-09-07T19:22:48.973Z,1.5
2022-09-07T19:27:48.995Z,1.1
2022-09-07T19:32:48.972Z,1.6
2022-09-07T19:37:48.976Z,1.9
2022-09-07T19:42:48.975Z,1.4
2022-09-07T19:47:48.977Z,1.6
2022-09-07T19:52:48.981Z,1.9
2022-09-07T19:57:48.978Z,1.6
2022-09-07T20:02:48.990Z,1.8
2022-09-07T20:07:48.988Z,1.9
2022-09-07T20:12:48.991Z,1.9
2022-09-07T20:17:48.983Z,2.0
2022-09-07T20:22:48.991Z,2.1
2022-09-07T20:27:49.000Z,2.1
2022-09-07T20:32:48.995Z,2.1
2022-09-07T20:37:48.998Z,2.5
2022-09-07T20:42:49.003Z,2.8
2022-09-07T20:47:49.002Z,2.7
2022-09-07T20:52:49.030Z,2.8
2022-09-07T20:57:49.005Z,2.5
2022-09-07T21:02:49.002Z,2.3
2022-09-07T21:07:48.999Z,2.4
2022-09-07T21:12:49.004Z,2.3
2022-09-07T21:17:49.011Z,2.6
2022-09-07T21:22:49.106Z,2.7
2022-09-07T21:27:49.132Z,2.8
2022-09-07T21:32:49.014Z,3.1
2022-09-07T21:37:49.012Z,2.3
2022-09-07T21:42:49.024Z,2.9
2022-09-07T21:47:49.017Z,2.9
2022-09-07T21:52:49.019Z,2.9
2022-09-07T21:57:49.022Z,2.8
2022-09-07T22:02:49.026Z,3.2
2022-09-07T22:07:49.024Z,3.5
2022-09-07T22:12:49.025Z,3.2
2022-09-07T22:17:49.034Z,3.5
2022-09-07T22:22:49.038Z,3.8
2022-09-07T22:27:49.024Z,3.8
2022-09-07T22:32:49.039Z,4.0
2022-09-07T22:37:49.032Z,3.2
2022-09-07T22:42:49.032Z,3.2
2022-09-07T22:47:49.039Z,3.2
2022-09-07T22:52:49.036Z,3.3
2022-09-07T22:57:49.066Z,3.2
2022-09-07T23:02:49.050Z,3.1
2022-09-07T23:07:49.038Z,3.0
2022-09-07T23:12:49.045Z,3.3
2022-09-07T23:17:49.050Z,3.8
2022-09-07T23:22:49.049Z,3.5
2022-09-07T23:27:49.051Z,3.6
2022-09-07T23:32:49.053Z,3.7
2022-09-07T23:37:49.060Z,3.7
2022-09-07T23:42:49.068Z,3.5
2022-09-07T23:47:49.058Z,3.9
2022-09-07T23:52:49.062Z,4.0
2022-09-07T23:57:49.065Z,3.9
